Nichioh Maru — JD3267 — position and weather

sailwx.info

Track history (hours):
 
Tides and Currents Weather Stations Pressure Air Temp Water Temp Dewpoint Dewpoint Depression Visibility Wind Speed Wind Dir Waves Ship Positions

Nichioh Maru

Last reported at 2016-Jun-27 02:33 UTC. Time now 2016-Jun-29 14:44 UTC.
Position N 34°37' E 134°57'.

Length 170 m; draft 6.5 m.

Type: Cargo ship. MMSI: 431003232.

Date/timePositionNaut miles runAvg speedWind from/ knotsBaromVisibWave heightAir tempDewpointWater temp
2016-Jun-27 02:33N 34°37' E 134°57'1615.8
2016-Jun-27 01:33N 34°39' E 135°16'3 2.7
2016-Jun-27 00:31N 34°41' E 135°13'0 0.0
2016-Jun-26 23:31N 34°41' E 135°13'1 0.8
2016-Jun-26 22:33N 34°40' E 135°14'1211.6
2016-Jun-26 21:33N 34°29' E 135°10'1413.9
2016-Jun-26 20:33N 34°18' E 134°60'1414.2
2016-Jun-26 19:33N 34°04' E 134°59'182 6.2
2016-Jun-25 14:12N 34°33' E 138°37'4817.9
2016-Jun-25 11:33N 34°57' E 139°27'1818.5
2016-Jun-25 10:33N 35°09' E 139°44'1313.2
2016-Jun-25 09:34N 35°22' E 139°42'9 8.8
2016-Jun-25 08:33N 35°30' E 139°46'0 0.0
2016-Jun-25 07:30N 35°30' E 139°46'0 0.0
2016-Jun-25 06:33N 35°30' E 139°46'0 0.0
2016-Jun-25 05:30N 35°30' E 139°46'0 0.0
2016-Jun-25 04:33N 35°30' E 139°46'0 0.0
2016-Jun-25 03:33N 35°30' E 139°46'0 0.3
2016-Jun-25 02:33N 35°30' E 139°45'9 8.8
2016-Jun-25 01:33N 35°22' E 139°45'6 5.1
2016-Jun-25 00:27N 35°19' E 139°39'0 0.0
2016-Jun-24 23:33N 35°19' E 139°39'0 0.0
2016-Jun-24 22:33N 35°19' E 139°39'9 8.9
2016-Jun-24 21:33N 35°13' E 139°47'24514.4
2016-Jun-24 04:33N 34°08' E 134°59'1817.7
2016-Jun-24 03:33N 34°25' E 135°05'1716.6
2016-Jun-24 02:33N 34°39' E 135°16'3 2.5
2016-Jun-24 01:33N 34°41' E 135°13'0 0.0
2016-Jun-24 00:33N 34°41' E 135°13'0 0.0
2016-Jun-23 23:33N 34°41' E 135°13'2 1.7
2016-Jun-23 22:33N 34°40' E 135°15'4 3.9
2016-Jun-23 21:31N 34°38' E 135°19'0 0.0
2016-Jun-23 20:25N 34°38' E 135°19'0 0.0
2016-Jun-23 19:25N 34°38' E 135°19'0 0.0
2016-Jun-23 18:25N 34°38' E 135°19'0 0.0
2016-Jun-23 17:31N 34°38' E 135°19'0 0.0
2016-Jun-23 16:25N 34°38' E 135°19'0 0.0
2016-Jun-23 15:31N 34°38' E 135°19'0 0.0
2016-Jun-23 14:25N 34°38' E 135°19'0 0.0
2016-Jun-23 13:31N 34°38' E 135°19'0 0.1
2016-Jun-23 12:31N 34°38' E 135°19'0 0.0
2016-Jun-23 11:25N 34°38' E 135°19'0 0.0
2016-Jun-23 10:31N 34°38' E 135°19'0 0.0
2016-Jun-23 09:31N 34°38' E 135°19'0 0.0
2016-Jun-23 08:31N 34°38' E 135°19'0 0.0
2016-Jun-23 07:31N 34°38' E 135°19'0 0.0
2016-Jun-23 05:31N 34°38' E 135°19'0 0.0
2016-Jun-23 04:25N 34°38' E 135°19'7 7.6
2016-Jun-23 03:33N 34°35' E 135°12'  
2016-Jun-20 03:31N 34°36' E 134°55'1212.9
2016-Jun-20 02:33N 34°37' E 135°11'5 3.8
2016-Jun-20 01:16N 34°41' E 135°13'0 0.0
2016-Jun-20 00:22N 34°41' E 135°13'0 0.0
2016-Jun-19 23:28N 34°41' E 135°13'1 0.6
2016-Jun-19 22:33N 34°40' E 135°14'9 9.4
2016-Jun-19 21:34N 34°31' E 135°14'1514.7
2016-Jun-19 20:33N 34°21' E 135°01'1514.5
2016-Jun-19 19:33N 34°06' E 134°59'174 6.4
2016-Jun-18 16:10N 34°32' E 138°28'4213.6
2016-Jun-18 13:04N 34°49' E 139°15'814.8
2016-Jun-18 12:32N 34°54' E 139°22'1414.8
2016-Jun-18 11:34N 35°02' E 139°36'1414.2
2016-Jun-18 10:33N 35°14' E 139°46'1212.4
2016-Jun-18 09:33N 35°27' E 139°46'4 3.8
2016-Jun-18 08:33N 35°30' E 139°46'0 0.0
2016-Jun-18 07:33N 35°30' E 139°46'0 0.0
2016-Jun-18 06:33N 35°30' E 139°46'0 0.0
2016-Jun-18 05:33N 35°30' E 139°46'0 0.0
2016-Jun-18 04:33N 35°30' E 139°46'0 0.0
2016-Jun-18 03:33N 35°30' E 139°46'0 0.0
2016-Jun-18 02:33N 35°30' E 139°46'7 7.0
2016-Jun-18 01:33N 35°23' E 139°46'7 7.1
2016-Jun-18 00:33N 35°19' E 139°39'0 0.0
2016-Jun-17 23:33N 35°19' E 139°39'0 0.0
2016-Jun-17 22:30N 35°19' E 139°39'8 8.0
2016-Jun-17 21:33N 35°15' E 139°47'1413.6
2016-Jun-17 20:34N 35°02' E 139°41'1413.8
2016-Jun-17 19:33N 34°53' E 139°28'22615.1
2016-Jun-17 04:33N 34°10' E 134°59'1919.0
2016-Jun-17 03:33N 34°28' E 135°08'1413.7
2016-Jun-17 02:33N 34°41' E 135°14'  
Track history (hours):
 
Tides and Currents Weather Stations Pressure Air Temp Water Temp Dewpoint Dewpoint Depression Visibility Wind Speed Wind Dir Waves Ship Positions

Nichioh Maru

Last reported at 2016-Jun-27 02:33 UTC. Time now 2016-Jun-29 14:44 UTC.
Position N 34°37' E 134°57'.

Length 170 m; draft 6.5 m.

Type: Cargo ship. MMSI: 431003232.

Date/timePositionNaut miles runAvg speedWind from/ knotsBaromVisibWave heightAir tempDewpointWater temp
2016-Jun-27 02:33N 34°37' E 134°57'1615.8
2016-Jun-27 01:33N 34°39' E 135°16'3 2.7
2016-Jun-27 00:31N 34°41' E 135°13'0 0.0
2016-Jun-26 23:31N 34°41' E 135°13'1 0.8
2016-Jun-26 22:33N 34°40' E 135°14'1211.6
2016-Jun-26 21:33N 34°29' E 135°10'1413.9
2016-Jun-26 20:33N 34°18' E 134°60'1414.2
2016-Jun-26 19:33N 34°04' E 134°59'182 6.2
2016-Jun-25 14:12N 34°33' E 138°37'4817.9
2016-Jun-25 11:33N 34°57' E 139°27'1818.5
2016-Jun-25 10:33N 35°09' E 139°44'1313.2
2016-Jun-25 09:34N 35°22' E 139°42'9 8.8
2016-Jun-25 08:33N 35°30' E 139°46'0 0.0
2016-Jun-25 07:30N 35°30' E 139°46'0 0.0
2016-Jun-25 06:33N 35°30' E 139°46'0 0.0
2016-Jun-25 05:30N 35°30' E 139°46'0 0.0
2016-Jun-25 04:33N 35°30' E 139°46'0 0.0
2016-Jun-25 03:33N 35°30' E 139°46'0 0.3
2016-Jun-25 02:33N 35°30' E 139°45'9 8.8
2016-Jun-25 01:33N 35°22' E 139°45'6 5.1
2016-Jun-25 00:27N 35°19' E 139°39'0 0.0
2016-Jun-24 23:33N 35°19' E 139°39'0 0.0
2016-Jun-24 22:33N 35°19' E 139°39'9 8.9
2016-Jun-24 21:33N 35°13' E 139°47'24514.4
2016-Jun-24 04:33N 34°08' E 134°59'1817.7
2016-Jun-24 03:33N 34°25' E 135°05'1716.6
2016-Jun-24 02:33N 34°39' E 135°16'3 2.5
2016-Jun-24 01:33N 34°41' E 135°13'0 0.0
2016-Jun-24 00:33N 34°41' E 135°13'0 0.0
2016-Jun-23 23:33N 34°41' E 135°13'2 1.7
2016-Jun-23 22:33N 34°40' E 135°15'4 3.9
2016-Jun-23 21:31N 34°38' E 135°19'0 0.0
2016-Jun-23 20:25N 34°38' E 135°19'0 0.0
2016-Jun-23 19:25N 34°38' E 135°19'0 0.0
2016-Jun-23 18:25N 34°38' E 135°19'0 0.0
2016-Jun-23 17:31N 34°38' E 135°19'0 0.0
2016-Jun-23 16:25N 34°38' E 135°19'0 0.0
2016-Jun-23 15:31N 34°38' E 135°19'0 0.0
2016-Jun-23 14:25N 34°38' E 135°19'0 0.0
2016-Jun-23 13:31N 34°38' E 135°19'0 0.1
2016-Jun-23 12:31N 34°38' E 135°19'0 0.0
2016-Jun-23 11:25N 34°38' E 135°19'0 0.0
2016-Jun-23 10:31N 34°38' E 135°19'0 0.0
2016-Jun-23 09:31N 34°38' E 135°19'0 0.0
2016-Jun-23 08:31N 34°38' E 135°19'0 0.0
2016-Jun-23 07:31N 34°38' E 135°19'0 0.0
2016-Jun-23 05:31N 34°38' E 135°19'0 0.0
2016-Jun-23 04:25N 34°38' E 135°19'7 7.6
2016-Jun-23 03:33N 34°35' E 135°12'  
2016-Jun-20 03:31N 34°36' E 134°55'1212.9
2016-Jun-20 02:33N 34°37' E 135°11'5 3.8
2016-Jun-20 01:16N 34°41' E 135°13'0 0.0
2016-Jun-20 00:22N 34°41' E 135°13'0 0.0
2016-Jun-19 23:28N 34°41' E 135°13'1 0.6
2016-Jun-19 22:33N 34°40' E 135°14'9 9.4
2016-Jun-19 21:34N 34°31' E 135°14'1514.7
2016-Jun-19 20:33N 34°21' E 135°01'1514.5
2016-Jun-19 19:33N 34°06' E 134°59'174 6.4
2016-Jun-18 16:10N 34°32' E 138°28'4213.6
2016-Jun-18 13:04N 34°49' E 139°15'814.8
2016-Jun-18 12:32N 34°54' E 139°22'1414.8
2016-Jun-18 11:34N 35°02' E 139°36'1414.2
2016-Jun-18 10:33N 35°14' E 139°46'1212.4
2016-Jun-18 09:33N 35°27' E 139°46'4 3.8
2016-Jun-18 08:33N 35°30' E 139°46'0 0.0
2016-Jun-18 07:33N 35°30' E 139°46'0 0.0
2016-Jun-18 06:33N 35°30' E 139°46'0 0.0
2016-Jun-18 05:33N 35°30' E 139°46'0 0.0
2016-Jun-18 04:33N 35°30' E 139°46'0 0.0
2016-Jun-18 03:33N 35°30' E 139°46'0 0.0
2016-Jun-18 02:33N 35°30' E 139°46'7 7.0
2016-Jun-18 01:33N 35°23' E 139°46'7 7.1
2016-Jun-18 00:33N 35°19' E 139°39'0 0.0
2016-Jun-17 23:33N 35°19' E 139°39'0 0.0
2016-Jun-17 22:30N 35°19' E 139°39'8 8.0
2016-Jun-17 21:33N 35°15' E 139°47'1413.6
2016-Jun-17 20:34N 35°02' E 139°41'1413.8
2016-Jun-17 19:33N 34°53' E 139°28'22615.1
2016-Jun-17 04:33N 34°10' E 134°59'1919.0
2016-Jun-17 03:33N 34°28' E 135°08'1413.7
2016-Jun-17 02:33N 34°41' E 135°14'  

Dump ship's entire track history